Time;durP1;ratioP1;P1;durP2;ratioP2;P2;SDS_P1;SDS_P2;PMS_P1;PMS_P2;Temp;Humidity;BMP_temperature;BMP_pressure;BME280_temperature;BME280_humidity;BME280_pressure;Samples;Min_cycle;Max_cycle;Signal;HPM_P1;HPM_P2
2022/03/22 00:00:08;;;;;;;11.67;6.60;;;10.20;99.90;;;;;;5030853;28;20176;-63
2022/03/22 00:02:35;;;;;;;11.67;7.63;;;10.20;99.90;;;;;;5030010;28;20186;-63
2022/03/22 00:05:01;;;;;;;11.57;8.17;;;10.10;99.90;;;;;;5030668;28;20912;-63
2022/03/22 00:07:27;;;;;;;9.80;6.70;;;10.00;99.90;;;;;;5030502;28;20449;-63
2022/03/22 00:09:54;;;;;;;12.90;7.93;;;10.00;99.90;;;;;;5030743;28;20190;-63
2022/03/22 00:12:19;;;;;;;11.83;8.70;;;9.80;99.90;;;;;;5030796;28;20415;-63
2022/03/22 00:14:45;;;;;;;11.83;7.10;;;9.90;99.90;;;;;;5030858;28;20457;-63
2022/03/22 00:17:12;;;;;;;11.67;7.13;;;9.90;99.90;;;;;;5030083;28;20200;-63
2022/03/22 00:19:37;;;;;;;12.63;8.33;;;9.90;99.90;;;;;;5030643;28;20422;-64
2022/03/22 00:22:04;;;;;;;13.77;8.13;;;9.90;99.90;;;;;;5030610;28;20416;-63
2022/03/22 00:24:30;;;;;;;13.83;8.07;;;9.90;99.90;;;;;;5030589;28;20199;-64
2022/03/22 00:26:55;;;;;;;12.40;8.10;;;9.80;99.90;;;;;;5030174;28;20443;-64
2022/03/22 00:29:21;;;;;;;13.90;8.17;;;9.80;99.90;;;;;;5030512;28;20427;-64
2022/03/22 00:31:47;;;;;;;12.00;7.53;;;9.80;99.90;;;;;;5030205;28;20188;-64
2022/03/22 00:34:13;;;;;;;13.40;8.77;;;9.80;99.90;;;;;;5030414;28;20231;-64
2022/03/22 00:36:43;;;;;;;14.10;7.50;;;9.70;99.90;;;;;;5030175;28;20209;-64
2022/03/22 00:39:09;;;;;;;11.03;7.67;;;9.70;99.90;;;;;;5030358;28;20663;-63
2022/03/22 00:41:35;;;;;;;12.40;7.70;;;9.60;99.90;;;;;;5030369;28;20934;-63
2022/03/22 00:44:00;;;;;;;10.90;7.40;;;9.60;99.90;;;;;;5030190;28;20430;-64
2022/03/22 00:46:26;;;;;;;13.13;8.03;;;9.60;99.90;;;;;;5029950;28;20202;-64
2022/03/22 00:48:52;;;;;;;12.63;8.20;;;9.50;99.90;;;;;;5030165;28;20562;-64
2022/03/22 00:51:20;;;;;;;15.27;8.50;;;9.50;99.90;;;;;;5030286;28;20629;-63
2022/03/22 00:53:47;;;;;;;11.33;8.37;;;9.40;99.90;;;;;;5030106;28;20180;-64
2022/03/22 00:56:12;;;;;;;12.33;8.43;;;9.40;99.90;;;;;;5030564;28;20930;-64
2022/03/22 00:58:38;;;;;;;10.33;7.70;;;9.40;99.90;;;;;;5029898;28;20414;-63
2022/03/22 01:01:04;;;;;;;12.93;7.97;;;9.40;99.90;;;;;;5030145;28;20705;-63
2022/03/22 01:03:33;;;;;;;16.67;9.30;;;9.40;99.90;;;;;;5030107;28;20187;-63
2022/03/22 01:06:01;;;;;;;11.20;8.10;;;9.40;99.90;;;;;;5030018;28;20274;-64
2022/03/22 01:08:30;;;;;;;16.83;8.10;;;9.40;99.90;;;;;;5029973;28;20427;-64
2022/03/22 01:10:56;;;;;;;16.03;8.57;;;9.40;99.90;;;;;;5030035;28;20422;-64
2022/03/22 01:13:25;;;;;;;12.30;8.60;;;9.40;99.90;;;;;;5030553;28;20508;-64
2022/03/22 01:15:51;;;;;;;10.53;7.33;;;9.40;99.90;;;;;;5033654;28;20971;-64
2022/03/22 01:18:17;;;;;;;12.73;8.00;;;9.30;99.90;;;;;;5033649;28;20474;-63
2022/03/22 01:20:51;;;;;;;13.90;8.20;;;9.30;99.90;;;;;;5033751;28;20419;-64
2022/03/22 01:23:19;;;;;;;15.63;9.23;;;9.30;99.90;;;;;;5033863;28;20418;-64
2022/03/22 01:25:45;;;;;;;16.10;7.97;;;9.20;99.90;;;;;;5033707;28;21041;-63
2022/03/22 01:28:13;;;;;;;11.50;7.53;;;9.20;99.90;;;;;;5033369;28;20475;-63
2022/03/22 01:30:39;;;;;;;12.20;7.67;;;9.20;99.90;;;;;;5033475;28;20429;-63
2022/03/22 01:33:06;;;;;;;10.67;7.90;;;9.20;99.90;;;;;;5022966;28;20478;-64
2022/03/22 01:35:32;;;;;;;11.13;8.20;;;9.10;99.90;;;;;;5021705;28;20467;-63
2022/03/22 01:37:58;;;;;;;14.57;8.20;;;9.10;99.90;;;;;;5028587;28;20518;-64
2022/03/22 01:40:27;;;;;;;12.73;7.60;;;9.10;99.90;;;;;;5033334;28;20519;-63
2022/03/22 01:42:54;;;;;;;12.37;8.63;;;9.10;99.90;;;;;;5033564;28;20219;-63
2022/03/22 01:45:20;;;;;;;11.97;9.00;;;9.00;99.90;;;;;;5033560;28;20946;-63
2022/03/22 01:47:47;;;;;;;13.23;8.37;;;9.10;99.90;;;;;;5032958;28;20449;-63
2022/03/22 01:50:22;;;;;;;9.47;7.10;;;9.00;99.90;;;;;;5033566;28;20933;-62
2022/03/22 01:52:48;;;;;;;12.67;7.90;;;9.00;99.90;;;;;;5033137;28;20426;-63
2022/03/22 01:55:17;;;;;;;10.40;6.93;;;9.00;99.90;;;;;;5032927;28;20520;-63
2022/03/22 01:57:43;;;;;;;12.50;7.80;;;9.00;99.90;;;;;;5032770;28;20450;-63
2022/03/22 02:00:13;;;;;;;14.57;8.83;;;8.90;99.90;;;;;;5033033;28;20795;-63
2022/03/22 02:08:10;;;;;;;11.60;7.00;;;8.80;99.90;;;;;;5034199;28;20464;-63
2022/03/22 02:10:37;;;;;;;13.73;8.77;;;8.80;99.90;;;;;;5032929;28;20510;-63
2022/03/22 02:13:03;;;;;;;15.87;8.67;;;8.80;99.90;;;;;;5032719;28;20418;-63
2022/03/22 02:15:29;;;;;;;12.00;8.03;;;8.70;99.90;;;;;;5032727;28;20459;-63
2022/03/22 02:17:56;;;;;;;10.17;6.80;;;8.70;99.90;;;;;;5032442;28;21002;-63
2022/03/22 02:20:22;;;;;;;13.87;8.83;;;8.60;99.90;;;;;;5032566;28;20181;-63
2022/03/22 02:22:51;;;;;;;12.80;9.00;;;8.60;99.90;;;;;;5033049;28;20479;-63
2022/03/22 02:25:18;;;;;;;9.20;7.10;;;8.60;99.90;;;;;;5031694;28;20621;-63
2022/03/22 02:27:47;;;;;;;12.43;8.07;;;8.60;99.90;;;;;;5032293;28;20447;-63
2022/03/22 02:30:13;;;;;;;9.30;6.43;;;8.60;99.90;;;;;;5032333;28;20437;-63
2022/03/22 02:32:40;;;;;;;11.47;7.50;;;8.60;99.90;;;;;;5032436;28;20419;-63
2022/03/22 02:35:07;;;;;;;11.53;7.30;;;8.50;99.90;;;;;;5032357;28;20462;-63
2022/03/22 02:37:33;;;;;;;12.13;7.70;;;8.50;99.90;;;;;;5032353;28;20446;-63
2022/03/22 02:39:58;;;;;;;13.03;7.33;;;8.50;99.90;;;;;;5032252;28;20427;-63
2022/03/22 02:42:24;;;;;;;13.60;8.50;;;8.40;99.90;;;;;;5032394;28;20640;-62
2022/03/22 02:44:50;;;;;;;15.13;8.47;;;8.40;99.90;;;;;;5032282;28;20427;-63
2022/03/22 02:47:16;;;;;;;12.00;7.80;;;8.40;99.90;;;;;;5031782;28;20204;-63
2022/03/22 02:49:42;;;;;;;14.93;8.33;;;8.40;99.90;;;;;;5032223;28;20439;-63
2022/03/22 02:52:07;;;;;;;10.30;7.23;;;8.30;99.90;;;;;;5032084;28;20238;-63
2022/03/22 02:54:36;;;;;;;11.43;7.40;;;8.30;99.90;;;;;;5031975;28;20204;-63
2022/03/22 02:57:02;;;;;;;10.40;6.80;;;8.30;99.90;;;;;;5031640;28;20561;-63
2022/03/22 02:59:28;;;;;;;14.13;8.47;;;8.30;99.90;;;;;;5032037;28;20510;-63
2022/03/22 03:01:57;;;;;;;12.30;7.63;;;8.20;99.90;;;;;;5031802;28;20188;-64
2022/03/22 03:04:23;;;;;;;11.77;7.13;;;8.20;99.90;;;;;;5031971;28;20184;-64
2022/03/22 03:06:48;;;;;;;11.97;7.83;;;8.20;99.90;;;;;;5031519;28;20449;-64
2022/03/22 03:09:14;;;;;;;9.73;7.47;;;8.20;99.90;;;;;;5031783;28;20430;-64
2022/03/22 03:11:40;;;;;;;11.37;7.17;;;8.20;99.90;;;;;;5031687;28;20195;-64
2022/03/22 03:16:50;;;;;;;11.60;6.43;;;8.10;99.90;;;;;;5033094;28;20681;-63
2022/03/22 03:19:19;;;;;;;11.00;7.00;;;8.10;99.90;;;;;;5031721;28;20416;-64
2022/03/22 03:21:44;;;;;;;9.20;6.00;;;8.10;99.90;;;;;;5031576;28;20183;-64
2022/03/22 03:24:10;;;;;;;11.30;7.50;;;8.10;99.90;;;;;;5031358;28;20411;-64
2022/03/22 03:26:36;;;;;;;9.43;6.63;;;8.00;99.90;;;;;;5031081;28;20208;-64
2022/03/22 03:29:02;;;;;;;13.20;8.40;;;8.00;99.90;;;;;;5031315;28;20651;-63
2022/03/22 03:31:27;;;;;;;11.43;6.70;;;8.10;99.90;;;;;;5031297;28;20427;-62
2022/03/22 03:33:54;;;;;;;12.40;7.83;;;8.10;99.90;;;;;;5031172;28;20185;-63
2022/03/22 03:36:20;;;;;;;11.23;6.17;;;8.10;99.90;;;;;;5031240;28;20224;-63
2022/03/22 03:38:46;;;;;;;9.77;7.03;;;8.10;99.90;;;;;;5031039;28;20430;-63
2022/03/22 03:43:57;;;;;;;10.53;6.30;;;8.20;99.90;;;;;;5032692;28;20191;-63
2022/03/22 03:49:08;;;;;;;10.27;7.00;;;8.30;99.90;;;;;;5032543;28;20552;-63
2022/03/22 03:51:38;;;;;;;15.47;7.50;;;8.30;99.90;;;;;;5030942;28;20884;-63
2022/03/22 03:54:03;;;;;;;8.60;5.77;;;8.30;99.90;;;;;;5030808;28;21244;-63
2022/03/22 03:56:29;;;;;;;12.20;7.00;;;8.30;99.90;;;;;;5030628;28;20552;-63
2022/03/22 03:58:57;;;;;;;11.43;7.43;;;8.30;99.90;;;;;;5030836;28;20180;-62
2022/03/22 04:01:25;;;;;;;11.27;6.50;;;8.30;99.90;;;;;;5019738;28;20566;-62
2022/03/22 04:03:50;;;;;;;9.90;7.00;;;8.30;99.90;;;;;;5011261;28;20431;-63
2022/03/22 04:06:17;;;;;;;10.77;7.73;;;8.20;99.90;;;;;;5009520;28;20502;-63
2022/03/22 04:08:43;;;;;;;11.73;7.40;;;8.20;99.90;;;;;;5022187;28;20434;-64
2022/03/22 04:11:09;;;;;;;10.77;6.83;;;8.20;99.90;;;;;;5027392;28;20192;-63
2022/03/22 04:13:35;;;;;;;12.13;8.27;;;8.20;99.90;;;;;;5030672;28;20651;-63
2022/03/22 04:16:01;;;;;;;15.60;7.00;;;8.10;99.90;;;;;;5030271;28;20223;-63
2022/03/22 04:18:30;;;;;;;13.83;6.60;;;8.10;99.90;;;;;;5030440;28;21006;-63
2022/03/22 04:20:55;;;;;;;11.60;7.50;;;8.10;99.90;;;;;;5030260;28;20430;-63
2022/03/22 04:23:21;;;;;;;11.50;7.10;;;8.10;99.90;;;;;;5030513;28;20419;-63
2022/03/22 04:25:47;;;;;;;8.10;6.23;;;8.10;99.90;;;;;;5030324;28;20203;-63
2022/03/22 04:33:41;;;;;;;13.00;7.20;;;8.00;99.90;;;;;;5032054;28;20465;-63
2022/03/22 04:36:07;;;;;;;10.77;5.87;;;8.00;99.90;;;;;;5030001;28;20476;-63
2022/03/22 04:38:34;;;;;;;10.90;6.97;;;8.00;99.90;;;;;;5030282;28;20250;-63
2022/03/22 04:41:00;;;;;;;13.60;6.73;;;7.90;99.90;;;;;;5030286;28;20510;-63
2022/03/22 04:43:26;;;;;;;11.50;7.90;;;7.90;99.90;;;;;;5030308;28;20965;-63
2022/03/22 04:45:51;;;;;;;10.10;6.90;;;7.90;99.90;;;;;;5030156;28;20435;-63
2022/03/22 04:48:17;;;;;;;10.60;7.30;;;8.00;99.90;;;;;;5030352;28;20292;-63
2022/03/22 04:50:43;;;;;;;13.37;7.10;;;8.00;99.90;;;;;;5034414;28;20614;-63
2022/03/22 04:58:37;;;;;;;8.53;5.83;;;8.00;99.90;;;;;;5035457;28;20409;-63
2022/03/22 05:01:04;;;;;;;10.23;6.70;;;8.00;99.90;;;;;;5034226;28;20418;-63
2022/03/22 05:03:30;;;;;;;13.63;7.77;;;8.00;99.90;;;;;;5034035;28;20185;-63
2022/03/22 05:08:39;;;;;;;10.50;6.77;;;8.00;99.90;;;;;;5035305;28;20510;-63
2022/03/22 05:11:05;;;;;;;9.57;6.00;;;8.00;99.90;;;;;;5034014;28;20431;-63
2022/03/22 05:13:31;;;;;;;9.90;6.37;;;8.10;99.90;;;;;;5033872;28;20191;-63
2022/03/22 05:15:57;;;;;;;11.00;6.40;;;8.10;99.90;;;;;;5033785;28;20212;-62
2022/03/22 05:18:23;;;;;;;8.97;6.70;;;8.10;99.90;;;;;;5034073;28;20230;-63
2022/03/22 05:20:48;;;;;;;11.67;7.63;;;8.10;99.90;;;;;;5033907;28;20180;-63
2022/03/22 05:23:17;;;;;;;10.60;6.57;;;8.20;99.90;;;;;;5033637;28;20418;-63
2022/03/22 05:25:43;;;;;;;8.60;7.10;;;8.30;99.90;;;;;;5050816;23;20224;-81
2022/03/22 05:28:08;;;;;;;10.13;6.57;;;8.30;99.90;;;;;;5050625;28;20411;-79
2022/03/22 05:30:34;;;;;;;10.17;6.87;;;8.30;99.90;;;;;;5054721;28;20428;-79
2022/03/22 05:33:00;;;;;;;11.97;6.33;;;8.40;99.90;;;;;;5055164;28;20225;-79
2022/03/22 05:35:25;;;;;;;9.83;6.83;;;8.40;99.90;;;;;;5051752;28;20223;-79
2022/03/22 05:37:51;;;;;;;7.20;5.70;;;8.40;99.90;;;;;;5034576;28;20172;-79
2022/03/22 05:40:17;;;;;;;7.40;5.90;;;8.40;99.90;;;;;;5034747;28;20176;-79
2022/03/22 05:42:43;;;;;;;9.90;6.07;;;8.50;99.90;;;;;;5034834;28;20411;-79
2022/03/22 05:45:11;;;;;;;12.70;6.00;;;8.50;99.90;;;;;;5034591;28;20302;-79
2022/03/22 05:47:36;;;;;;;10.67;6.00;;;8.50;99.90;;;;;;5034376;28;20176;-79
2022/03/22 05:50:02;;;;;;;15.07;7.40;;;8.50;99.90;;;;;;5016825;28;20431;-79
2022/03/22 05:52:28;;;;;;;8.23;5.87;;;8.60;99.90;;;;;;5034512;28;20177;-79
2022/03/22 05:54:53;;;;;;;11.03;6.30;;;8.60;99.90;;;;;;5034503;28;20527;-79
2022/03/22 05:57:19;;;;;;;8.70;6.50;;;8.60;99.90;;;;;;5016372;28;20279;-79
2022/03/22 05:59:44;;;;;;;8.93;6.63;;;8.60;99.90;;;;;;5033614;28;20209;-79
2022/03/22 06:02:10;;;;;;;8.30;5.10;;;8.60;99.90;;;;;;5033877;28;20172;-79
2022/03/22 06:04:36;;;;;;;10.20;6.47;;;8.70;99.90;;;;;;5034191;28;20211;-79
2022/03/22 06:07:02;;;;;;;9.10;6.20;;;8.70;99.90;;;;;;5033640;28;20616;-79
2022/03/22 06:09:27;;;;;;;10.67;6.90;;;8.70;99.90;;;;;;5034200;28;20624;-79
2022/03/22 06:11:53;;;;;;;8.27;5.80;;;8.70;99.90;;;;;;5033732;28;20188;-79
2022/03/22 06:14:18;;;;;;;10.17;5.57;;;8.80;99.90;;;;;;5034120;28;20323;-79
2022/03/22 06:16:44;;;;;;;10.90;6.83;;;8.80;99.90;;;;;;5033641;28;20196;-80
2022/03/22 06:19:10;;;;;;;11.27;6.27;;;8.80;99.90;;;;;;5034183;28;20177;-79
2022/03/22 06:21:35;;;;;;;12.73;6.93;;;8.80;99.90;;;;;;5033847;28;20640;-79
2022/03/22 06:24:01;;;;;;;13.13;7.43;;;8.80;99.90;;;;;;5033954;28;20183;-78
2022/03/22 06:26:26;;;;;;;9.60;6.03;;;8.80;99.90;;;;;;5033331;28;20227;-79
2022/03/22 06:28:52;;;;;;;7.77;5.90;;;8.80;99.90;;;;;;5033976;28;20176;-79
2022/03/22 06:31:18;;;;;;;10.83;7.00;;;8.80;99.90;;;;;;5033982;28;20177;-79
2022/03/22 06:33:43;;;;;;;9.97;7.17;;;8.80;99.90;;;;;;5033884;28;20207;-79
2022/03/22 06:36:09;;;;;;;11.37;6.47;;;8.80;99.90;;;;;;5033681;28;20258;-79
2022/03/22 06:38:35;;;;;;;9.20;6.70;;;8.80;99.90;;;;;;5033395;28;20262;-79
2022/03/22 06:41:02;;;;;;;9.03;5.83;;;8.90;99.90;;;;;;5033694;28;20175;-79
2022/03/22 06:43:27;;;;;;;8.67;5.90;;;9.00;99.90;;;;;;5033824;28;20412;-79
2022/03/22 06:45:53;;;;;;;10.40;7.03;;;9.00;99.90;;;;;;5033350;28;20973;-79
2022/03/22 06:48:18;;;;;;;10.43;6.33;;;9.10;99.90;;;;;;5033347;28;20260;-79
2022/03/22 06:50:47;;;;;;;9.20;6.20;;;9.10;99.90;;;;;;5033453;28;20172;-79
2022/03/22 06:53:13;;;;;;;8.80;6.60;;;9.20;99.90;;;;;;5033298;28;20622;-79
2022/03/22 06:55:39;;;;;;;8.90;6.10;;;9.20;99.90;;;;;;5033270;28;20462;-79
2022/03/22 06:58:05;;;;;;;9.67;6.50;;;9.30;99.90;;;;;;5033007;28;20259;-79
2022/03/22 07:00:32;;;;;;;10.93;5.77;;;9.40;99.90;;;;;;5015558;28;20415;-79
2022/03/22 07:03:00;;;;;;;12.70;6.03;;;9.50;99.90;;;;;;5033290;28;20781;-79
2022/03/22 07:05:26;;;;;;;10.67;7.00;;;9.60;99.90;;;;;;5032881;28;20985;-79
2022/03/22 07:07:52;;;;;;;11.00;7.50;;;9.70;99.90;;;;;;5032834;28;20470;-79
2022/03/22 07:10:19;;;;;;;8.60;6.13;;;9.80;99.90;;;;;;5015330;28;20225;-79
2022/03/22 07:12:55;;;;;;;11.30;6.90;;;9.90;99.90;;;;;;5032976;28;20191;-79
2022/03/22 07:15:26;;;;;;;8.47;6.00;;;10.00;99.90;;;;;;5032796;28;20567;-79
2022/03/22 07:17:52;;;;;;;9.57;5.97;;;10.10;99.90;;;;;;5014934;28;20459;-79
2022/03/22 07:20:19;;;;;;;8.50;5.47;;;10.20;99.90;;;;;;5014404;28;20423;-79
2022/03/22 07:22:45;;;;;;;10.57;6.93;;;10.40;99.90;;;;;;5014196;28;20836;-79
2022/03/22 07:25:11;;;;;;;10.27;7.20;;;10.50;99.90;;;;;;5028896;28;20927;-79
2022/03/22 07:27:36;;;;;;;10.57;6.47;;;10.60;99.90;;;;;;5041522;28;20500;-79
2022/03/22 07:30:03;;;;;;;10.40;7.47;;;10.70;99.90;;;;;;5043980;28;20183;-79
2022/03/22 07:32:29;;;;;;;10.10;6.13;;;10.70;99.90;;;;;;5052546;28;20585;-79
2022/03/22 07:34:54;;;;;;;9.27;6.73;;;10.80;99.90;;;;;;5052427;28;20496;-81
2022/03/22 07:37:20;;;;;;;8.83;5.67;;;10.90;99.90;;;;;;5053236;28;20182;-79
2022/03/22 07:39:46;;;;;;;12.77;6.47;;;10.90;99.90;;;;;;5035318;28;20204;-80
2022/03/22 07:42:11;;;;;;;7.90;5.43;;;11.00;99.90;;;;;;5053362;28;20191;-79
2022/03/22 07:44:39;;;;;;;11.83;6.80;;;11.10;99.70;;;;;;5052609;28;20548;-80
2022/03/22 07:47:05;;;;;;;8.33;6.00;;;11.10;99.10;;;;;;5052131;28;20704;-80
2022/03/22 07:54:59;;;;;;;12.00;6.03;;;11.40;98.50;;;;;;5052165;28;20432;-79
2022/03/22 07:57:24;;;;;;;9.70;6.27;;;11.50;98.50;;;;;;5051720;28;20783;-79
2022/03/22 07:59:50;;;;;;;12.23;7.40;;;11.70;96.80;;;;;;5034749;28;20179;-79
2022/03/22 08:02:15;;;;;;;8.03;6.10;;;11.80;98.20;;;;;;5052249;28;20241;-79
2022/03/22 08:04:41;;;;;;;8.00;6.20;;;11.90;96.00;;;;;;5051981;28;20203;-80
2022/03/22 08:07:07;;;;;;;8.47;5.97;;;12.00;95.20;;;;;;5051745;28;20601;-79
2022/03/22 08:09:33;;;;;;;10.33;5.83;;;12.10;93.10;;;;;;5052180;28;20167;-79
2022/03/22 08:11:58;;;;;;;12.90;6.60;;;12.20;92.00;;;;;;5033989;28;20421;-79
2022/03/22 08:14:24;;;;;;;8.10;6.43;;;12.40;90.80;;;;;;5051993;28;20180;-79
2022/03/22 08:16:49;;;;;;;10.23;6.10;;;12.50;91.20;;;;;;5051387;28;20620;-80
2022/03/22 08:19:18;;;;;;;9.80;6.80;;;12.60;90.50;;;;;;5051928;28;20171;-79
2022/03/22 08:21:48;;;;;;;8.57;5.80;;;12.70;90.20;;;;;;5051707;28;20187;-79
2022/03/22 08:24:14;;;;;;;9.83;6.80;;;12.80;88.50;;;;;;5051147;28;20466;-80
2022/03/22 08:26:40;;;;;;;9.40;6.17;;;12.90;85.30;;;;;;5051267;28;20461;-79
2022/03/22 08:29:06;;;;;;;8.87;6.07;;;13.00;86.00;;;;;;5051972;28;20180;-79
2022/03/22 08:31:31;;;;;;;9.63;7.10;;;13.10;84.30;;;;;;5051774;28;20179;-79
2022/03/22 08:33:57;;;;;;;10.83;7.77;;;13.20;83.80;;;;;;5040468;28;20431;-80
2022/03/22 08:36:23;;;;;;;6.90;5.13;;;13.30;84.70;;;;;;5021781;28;20210;-80
2022/03/22 08:38:49;;;;;;;10.80;7.27;;;13.40;81.60;;;;;;5030925;28;20187;-80
2022/03/22 08:41:15;;;;;;;13.47;7.40;;;13.60;78.50;;;;;;5030825;28;20419;-80
2022/03/22 08:43:42;;;;;;;13.80;7.30;;;13.70;76.70;;;;;;5031099;28;20414;-80
2022/03/22 08:46:07;;;;;;;8.50;6.80;;;13.90;79.80;;;;;;5018948;28;20517;-82
2022/03/22 08:48:34;;;;;;;9.37;6.60;;;14.00;72.10;;;;;;5011744;28;20971;-81
2022/03/22 08:51:00;;;;;;;10.13;7.27;;;14.10;70.00;;;;;;5011831;28;20173;-80
2022/03/22 08:53:26;;;;;;;9.17;6.53;;;14.20;72.60;;;;;;5011891;28;20503;-79
2022/03/22 08:55:52;;;;;;;8.50;6.20;;;14.30;68.40;;;;;;4993211;28;20639;-80
2022/03/22 08:58:18;;;;;;;17.23;7.57;;;14.30;66.50;;;;;;5011403;28;20664;-79
2022/03/22 09:00:45;;;;;;;8.50;6.30;;;14.40;65.80;;;;;;5011546;28;20783;-79
2022/03/22 09:03:11;;;;;;;9.07;6.70;;;14.50;66.30;;;;;;4994044;28;20428;-80
2022/03/22 09:08:21;;;;;;;9.00;5.97;;;14.60;64.90;;;;;;5011436;28;20184;-81
2022/03/22 09:10:49;;;;;;;9.77;8.07;;;14.80;63.30;;;;;;5011889;28;20769;-81
2022/03/22 09:13:15;;;;;;;10.30;6.27;;;14.90;61.40;;;;;;5011562;28;20181;-81
2022/03/22 09:15:41;;;;;;;11.23;7.10;;;15.00;61.20;;;;;;5011583;28;20542;-81
2022/03/22 09:18:13;;;;;;;8.97;6.50;;;15.20;63.70;;;;;;5011791;28;20412;-80
2022/03/22 09:20:40;;;;;;;9.47;6.30;;;15.40;61.40;;;;;;5012499;28;20223;-80
2022/03/22 09:23:05;;;;;;;8.63;6.20;;;15.50;58.90;;;;;;5012658;28;20415;-80
2022/03/22 09:25:31;;;;;;;9.30;6.30;;;15.60;59.30;;;;;;4994650;28;20498;-80
2022/03/22 09:28:00;;;;;;;9.20;6.80;;;15.80;58.70;;;;;;4994706;28;20177;-80
2022/03/22 09:30:25;;;;;;;9.97;6.60;;;16.00;56.40;;;;;;5023999;28;20185;-80
2022/03/22 09:32:51;;;;;;;8.63;5.73;;;16.00;55.30;;;;;;5043292;28;20780;-80
2022/03/22 09:35:19;;;;;;;10.40;7.43;;;16.20;56.00;;;;;;5032202;28;20213;-80
2022/03/22 09:37:46;;;;;;;11.47;7.23;;;16.40;54.20;;;;;;5049040;28;20651;-80
2022/03/22 09:40:14;;;;;;;11.50;7.10;;;16.60;54.60;;;;;;5052410;28;20421;-80
2022/03/22 09:42:45;;;;;;;9.53;7.10;;;18.40;54.60;;;;;;5055503;28;20476;-80
2022/03/22 09:45:17;;;;;;;9.63;6.70;;;19.20;53.90;;;;;;5055498;28;20519;-81
2022/03/22 09:47:44;;;;;;;10.10;6.67;;;22.40;47.10;;;;;;5054838;28;20471;-81
2022/03/22 09:50:11;;;;;;;9.30;6.93;;;23.30;41.80;;;;;;5055380;28;20434;-81
2022/03/22 09:52:38;;;;;;;8.77;6.37;;;24.90;39.50;;;;;;5055066;28;20414;-81
2022/03/22 09:55:05;;;;;;;10.50;7.00;;;26.00;35.20;;;;;;5055326;28;20474;-81
2022/03/22 09:57:31;;;;;;;8.00;6.33;;;27.10;32.90;;;;;;5055448;28;20418;-81
2022/03/22 09:59:57;;;;;;;8.90;7.10;;;28.40;31.20;;;;;;5037668;28;20842;-81
2022/03/22 10:02:28;;;;;;;9.40;7.47;;;29.70;29.90;;;;;;5038259;28;20191;-82
2022/03/22 10:04:53;;;;;;;12.67;8.00;;;31.00;28.20;;;;;;5052805;28;20579;-82
2022/03/22 10:07:20;;;;;;;11.87;7.90;;;31.80;26.20;;;;;;5054165;28;20422;-82
2022/03/22 10:09:58;;;;;;;8.23;6.77;;;32.60;25.80;;;;;;5054984;28;20179;-82
2022/03/22 10:12:35;;;;;;;7.93;6.93;;;32.90;24.20;;;;;;5037272;28;20600;-82
2022/03/22 10:15:16;;;;;;;7.83;6.83;;;33.70;24.80;;;;;;5054268;28;20444;-82
2022/03/22 10:17:44;;;;;;;7.50;6.30;;;34.80;24.00;;;;;;5054651;28;20963;-82
2022/03/22 10:20:21;;;;;;;7.47;6.50;;;35.60;23.40;;;;;;5048516;28;20427;-82
2022/03/22 10:22:58;;;;;;;8.50;7.07;;;36.40;22.60;;;;;;5022074;28;20787;-82
2022/03/22 10:25:24;;;;;;;7.53;6.73;;;36.40;21.50;;;;;;5014744;28;20990;-82
2022/03/22 10:27:54;;;;;;;9.10;6.63;;;36.30;20.90;;;;;;5036830;28;20435;-82
2022/03/22 10:30:20;;;;;;;7.33;6.53;;;36.10;21.30;;;;;;5037561;28;20419;-82
2022/03/22 10:32:51;;;;;;;9.70;7.53;;;36.40;21.20;;;;;;5037059;28;20408;-82
2022/03/22 10:35:28;;;;;;;7.53;6.60;;;36.70;20.70;;;;;;5036920;28;20200;-82
2022/03/22 10:38:00;;;;;;;7.53;6.73;;;36.50;20.40;;;;;;5036554;28;20932;-82
2022/03/22 10:40:40;;;;;;;7.87;6.37;;;36.30;19.60;;;;;;5036684;28;20411;-82
2022/03/22 10:43:26;;;;;;;7.93;7.10;;;36.20;20.30;;;;;;5037359;28;20447;-82
2022/03/22 10:45:56;;;;;;;7.20;6.47;;;36.50;20.00;;;;;;5035304;28;20475;-82
2022/03/22 10:48:30;;;;;;;7.43;6.50;;;37.10;19.60;;;;;;5035979;28;20820;-82
2022/03/22 10:51:00;;;;;;;7.97;6.97;;;37.40;19.40;;;;;;5036734;28;20493;-82
2022/03/22 10:53:28;;;;;;;8.40;6.90;;;36.70;19.10;;;;;;5037278;28;20481;-82
2022/03/22 10:55:55;;;;;;;8.47;6.93;;;36.10;19.20;;;;;;5033912;28;20474;-82
2022/03/22 10:58:28;;;;;;;8.50;7.23;;;36.60;19.50;;;;;;5033600;28;20419;-82
2022/03/22 11:00:55;;;;;;;7.60;6.10;;;36.30;19.80;;;;;;5033410;28;20407;-82
2022/03/22 11:03:23;;;;;;;6.87;5.80;;;36.20;19.10;;;;;;5028017;28;20441;-82
2022/03/22 11:05:55;;;;;;;7.17;6.10;;;36.80;19.10;;;;;;5034136;28;20522;-82
2022/03/22 11:08:23;;;;;;;7.07;6.30;;;36.60;18.90;;;;;;5050360;28;20437;-81
2022/03/22 11:10:51;;;;;;;8.93;6.70;;;35.60;18.80;;;;;;5035260;28;20483;-81
2022/03/22 11:13:17;;;;;;;8.20;6.63;;;35.60;19.10;;;;;;5035131;28;20953;-81
2022/03/22 11:15:46;;;;;;;7.23;6.53;;;35.60;18.60;;;;;;5052139;28;20493;-81
2022/03/22 11:18:14;;;;;;;6.23;5.63;;;35.20;19.00;;;;;;5052263;28;20440;-82
2022/03/22 11:20:52;;;;;;;8.40;6.17;;;34.10;18.60;;;;;;5039336;28;20466;-81
2022/03/22 11:23:23;;;;;;;7.57;6.37;;;33.20;18.40;;;;;;5025121;28;20419;-82
2022/03/22 11:25:50;;;;;;;7.47;5.90;;;32.70;20.00;;;;;;5032288;28;20450;-81
2022/03/22 11:28:22;;;;;;;6.97;6.03;;;33.20;20.20;;;;;;5032477;28;20433;-81
2022/03/22 11:30:48;;;;;;;7.90;5.70;;;33.20;20.90;;;;;;5032649;28;20502;-82
2022/03/22 11:36:12;;;;;;;7.30;6.57;;;33.80;20.90;;;;;;5031419;28;20600;-83
2022/03/22 11:38:45;;;;;;;7.40;5.90;;;33.70;20.50;;;;;;5032274;28;20447;-83
2022/03/22 11:44:23;;;;;;;7.50;6.40;;;34.50;20.00;;;;;;5032710;28;20409;-82
2022/03/22 11:47:07;;;;;;;7.90;6.70;;;34.30;21.50;;;;;;5031693;28;20427;-82
2022/03/22 11:49:54;;;;;;;6.83;5.80;;;34.30;21.10;;;;;;5032367;28;20516;-82
2022/03/22 11:52:25;;;;;;;8.53;6.37;;;34.70;20.30;;;;;;5031785;28;20402;-82
2022/03/22 11:55:00;;;;;;;7.00;5.97;;;36.00;20.50;;;;;;5032030;28;20458;-82
2022/03/22 11:57:27;;;;;;;9.77;6.47;;;36.40;20.00;;;;;;5031705;28;20406;-82
2022/03/22 11:59:54;;;;;;;8.43;7.30;;;36.10;20.60;;;;;;5032102;28;20464;-81
2022/03/22 12:02:27;;;;;;;7.30;6.60;;;36.40;20.50;;;;;;5032198;28;20828;-81
2022/03/22 12:04:57;;;;;;;7.97;6.80;;;36.80;20.10;;;;;;5031727;28;20420;-82
2022/03/22 12:07:32;;;;;;;7.53;6.67;;;39.00;19.70;;;;;;5031771;28;20414;-82
2022/03/22 12:10:11;;;;;;;8.07;6.13;;;39.00;19.90;;;;;;5032430;28;20422;-82
2022/03/22 12:12:37;;;;;;;7.70;6.23;;;39.20;19.40;;;;;;5032349;28;20419;-82
2022/03/22 12:15:06;;;;;;;7.10;5.70;;;39.00;19.00;;;;;;5031545;28;20470;-82
2022/03/22 12:17:32;;;;;;;7.50;6.70;;;39.40;19.80;;;;;;5031276;28;20490;-82
2022/03/22 12:20:00;;;;;;;8.23;6.83;;;37.80;18.20;;;;;;5014184;28;20501;-82
2022/03/22 12:22:29;;;;;;;8.00;6.20;;;35.80;19.80;;;;;;5031821;28;20430;-82
2022/03/22 12:24:58;;;;;;;9.03;7.00;;;35.10;20.80;;;;;;5031905;28;20442;-82
2022/03/22 12:27:24;;;;;;;10.30;7.30;;;36.00;19.90;;;;;;5031101;28;20418;-82
2022/03/22 12:29:50;;;;;;;8.97;7.00;;;36.90;19.40;;;;;;5031441;28;20411;-83
2022/03/22 12:32:18;;;;;;;8.43;7.13;;;37.70;19.90;;;;;;5031675;28;20500;-82
2022/03/22 12:34:45;;;;;;;7.40;6.03;;;37.80;19.20;;;;;;5013715;28;20208;-83
2022/03/22 12:37:13;;;;;;;7.70;5.90;;;37.90;19.00;;;;;;5013227;28;20439;-82
2022/03/22 12:39:41;;;;;;;8.50;6.07;;;38.80;19.00;;;;;;5031630;28;20418;-82
2022/03/22 12:42:07;;;;;;;8.70;6.40;;;39.40;18.80;;;;;;5031359;28;20415;-83
2022/03/22 12:44:34;;;;;;;7.83;5.53;;;38.40;18.30;;;;;;5013888;28;20419;-83
2022/03/22 12:47:01;;;;;;;5.63;4.77;;;38.50;18.80;;;;;;5031031;28;20438;-83
2022/03/22 12:49:27;;;;;;;5.90;5.17;;;39.20;18.50;;;;;;5031265;28;20407;-83
2022/03/22 12:51:53;;;;;;;6.47;5.40;;;38.70;18.20;;;;;;5031539;28;20415;-82
2022/03/22 12:54:19;;;;;;;6.90;5.70;;;38.70;17.90;;;;;;5031352;28;20461;-83
2022/03/22 12:56:49;;;;;;;6.30;5.60;;;39.00;19.20;;;;;;5031183;28;20192;-83
2022/03/22 12:59:23;;;;;;;6.20;5.33;;;39.30;18.70;;;;;;5032076;28;20176;-83
2022/03/22 13:01:58;;;;;;;5.50;4.70;;;40.50;18.80;;;;;;5032273;28;20418;-85
2022/03/22 13:04:29;;;;;;;6.80;5.57;;;41.00;18.50;;;;;;5032690;28;20994;-82
2022/03/22 13:07:04;;;;;;;5.00;4.50;;;39.40;17.90;;;;;;5057699;22;20499;-80
2022/03/22 13:12:16;;;;;;;6.57;5.00;;;37.60;18.50;;;;;;5043009;28;20414;-81
2022/03/22 13:15:02;;;;;;;6.27;5.20;;;38.60;18.80;;;;;;5036082;28;20454;-80
2022/03/22 13:17:29;;;;;;;6.00;5.33;;;38.50;17.90;;;;;;5020759;28;20534;-81
2022/03/22 13:19:55;;;;;;;5.20;4.60;;;38.10;18.00;;;;;;5015211;28;20494;-80
2022/03/22 13:22:22;;;;;;;5.70;4.33;;;37.40;17.80;;;;;;5014883;28;20424;-81
2022/03/22 13:24:48;;;;;;;5.07;4.50;;;36.30;17.80;;;;;;5016587;28;20423;-80
2022/03/22 13:27:14;;;;;;;5.90;4.60;;;37.00;19.10;;;;;;5033868;28;20458;-80
2022/03/22 13:29:43;;;;;;;6.10;4.67;;;37.70;19.00;;;;;;5034725;28;20926;-80
2022/03/22 13:32:11;;;;;;;5.17;4.67;;;38.80;18.70;;;;;;5034915;28;20188;-80